sensor_id;sensor_type;location;lat;lon;timestamp;temperature;humidity
52643;DHT22;38531;53.296;6.614;2022-11-20T00:01:23;-0.20;99.90
52643;DHT22;38531;53.296;6.614;2022-11-20T00:03:51;-0.10;99.90
52643;DHT22;38531;53.296;6.614;2022-11-20T00:06:18;1.00;99.90
52643;DHT22;38531;53.296;6.614;2022-11-20T00:08:45;-0.10;99.90
52643;DHT22;38531;53.296;6.614;2022-11-20T00:11:13;0.60;99.90
52643;DHT22;38531;53.296;6.614;2022-11-20T00:13:38;-0.10;99.90
52643;DHT22;38531;53.296;6.614;2022-11-20T00:16:06;-0.10;99.90
52643;DHT22;38531;53.296;6.614;2022-11-20T00:18:33;0.00;99.90
52643;DHT22;38531;53.296;6.614;2022-11-20T00:21:26;0.00;99.90
52643;DHT22;38531;53.296;6.614;2022-11-20T00:23:54;0.00;99.90
52643;DHT22;38531;53.296;6.614;2022-11-20T00:26:21;0.00;99.90
52643;DHT22;38531;53.296;6.614;2022-11-20T00:28:52;0.00;99.90
52643;DHT22;38531;53.296;6.614;2022-11-20T00:31:19;0.40;99.90
52643;DHT22;38531;53.296;6.614;2022-11-20T00:33:45;0.00;99.90
52643;DHT22;38531;53.296;6.614;2022-11-20T00:36:13;0.00;99.90
52643;DHT22;38531;53.296;6.614;2022-11-20T00:38:39;0.50;99.90
52643;DHT22;38531;53.296;6.614;2022-11-20T00:41:07;0.10;99.90
52643;DHT22;38531;53.296;6.614;2022-11-20T00:43:33;0.00;99.90
52643;DHT22;38531;53.296;6.614;2022-11-20T00:46:00;0.10;99.90
52643;DHT22;38531;53.296;6.614;2022-11-20T00:48:26;0.10;99.90
52643;DHT22;38531;53.296;6.614;2022-11-20T00:50:53;1.10;99.90
52643;DHT22;38531;53.296;6.614;2022-11-20T00:53:18;0.10;99.90
52643;DHT22;38531;53.296;6.614;2022-11-20T00:55:53;0.10;99.90
52643;DHT22;38531;53.296;6.614;2022-11-20T00:58:19;0.30;99.90
52643;DHT22;38531;53.296;6.614;2022-11-20T01:00:45;0.10;99.90
52643;DHT22;38531;53.296;6.614;2022-11-20T01:03:10;1.00;99.90
52643;DHT22;38531;53.296;6.614;2022-11-20T01:05:36;0.20;99.90
52643;DHT22;38531;53.296;6.614;2022-11-20T01:08:02;0.20;99.90
52643;DHT22;38531;53.296;6.614;2022-11-20T01:10:27;0.20;99.90
52643;DHT22;38531;53.296;6.614;2022-11-20T01:12:53;0.20;99.90
52643;DHT22;38531;53.296;6.614;2022-11-20T01:15:38;0.20;99.90
52643;DHT22;38531;53.296;6.614;2022-11-20T01:18:04;0.20;99.90
52643;DHT22;38531;53.296;6.614;2022-11-20T01:20:34;1.40;99.90
52643;DHT22;38531;53.296;6.614;2022-11-20T01:23:01;0.50;99.90
52643;DHT22;38531;53.296;6.614;2022-11-20T01:25:26;0.20;99.90
52643;DHT22;38531;53.296;6.614;2022-11-20T01:27:52;1.20;99.90
52643;DHT22;38531;53.296;6.614;2022-11-20T01:30:18;0.20;99.90
52643;DHT22;38531;53.296;6.614;2022-11-20T01:32:43;1.20;99.90
52643;DHT22;38531;53.296;6.614;2022-11-20T01:35:09;0.20;99.90
52643;DHT22;38531;53.296;6.614;2022-11-20T01:37:35;0.20;99.90
52643;DHT22;38531;53.296;6.614;2022-11-20T01:40:01;0.30;99.90
52643;DHT22;38531;53.296;6.614;2022-11-20T01:42:27;0.30;99.90
52643;DHT22;38531;53.296;6.614;2022-11-20T01:48:09;0.30;99.90
52643;DHT22;38531;53.296;6.614;2022-11-20T01:50:34;0.30;99.90
52643;DHT22;38531;53.296;6.614;2022-11-20T01:53:04;0.30;99.90
52643;DHT22;38531;53.296;6.614;2022-11-20T01:55:36;0.30;99.90
52643;DHT22;38531;53.296;6.614;2022-11-20T01:58:03;0.30;99.90
52643;DHT22;38531;53.296;6.614;2022-11-20T02:00:29;0.30;99.90
52643;DHT22;38531;53.296;6.614;2022-11-20T02:02:58;0.50;99.90
52643;DHT22;38531;53.296;6.614;2022-11-20T02:05:49;0.30;99.90
52643;DHT22;38531;53.296;6.614;2022-11-20T02:08:17;0.30;99.90
52643;DHT22;38531;53.296;6.614;2022-11-20T02:10:44;0.30;99.90
52643;DHT22;38531;53.296;6.614;2022-11-20T02:13:10;0.40;99.90
52643;DHT22;38531;53.296;6.614;2022-11-20T02:15:54;0.40;99.90
52643;DHT22;38531;53.296;6.614;2022-11-20T02:18:21;0.40;99.90
52643;DHT22;38531;53.296;6.614;2022-11-20T02:20:49;0.40;99.90
52643;DHT22;38531;53.296;6.614;2022-11-20T02:23:30;0.40;99.90
52643;DHT22;38531;53.296;6.614;2022-11-20T02:25:58;0.40;99.90
52643;DHT22;38531;53.296;6.614;2022-11-20T02:28:26;0.60;99.90
52643;DHT22;38531;53.296;6.614;2022-11-20T02:30:52;0.40;99.90
52643;DHT22;38531;53.296;6.614;2022-11-20T02:33:18;0.40;99.90
52643;DHT22;38531;53.296;6.614;2022-11-20T02:35:45;0.40;99.90
52643;DHT22;38531;53.296;6.614;2022-11-20T02:38:11;0.50;99.90
52643;DHT22;38531;53.296;6.614;2022-11-20T02:40:38;0.50;99.90
52643;DHT22;38531;53.296;6.614;2022-11-20T02:43:03;0.40;99.90
52643;DHT22;38531;53.296;6.614;2022-11-20T02:45:29;1.30;99.90
52643;DHT22;38531;53.296;6.614;2022-11-20T02:47:55;0.50;99.90
52643;DHT22;38531;53.296;6.614;2022-11-20T02:50:20;0.50;99.90
52643;DHT22;38531;53.296;6.614;2022-11-20T02:52:46;0.50;99.90
52643;DHT22;38531;53.296;6.614;2022-11-20T02:55:11;0.50;99.90
52643;DHT22;38531;53.296;6.614;2022-11-20T02:57:37;0.50;99.90
52643;DHT22;38531;53.296;6.614;2022-11-20T03:00:04;0.50;99.90
52643;DHT22;38531;53.296;6.614;2022-11-20T03:02:31;0.50;99.90
52643;DHT22;38531;53.296;6.614;2022-11-20T03:04:57;0.50;99.90
52643;DHT22;38531;53.296;6.614;2022-11-20T03:07:22;0.50;99.90
52643;DHT22;38531;53.296;6.614;2022-11-20T03:09:48;0.50;99.90
52643;DHT22;38531;53.296;6.614;2022-11-20T03:12:14;0.50;99.90
52643;DHT22;38531;53.296;6.614;2022-11-20T03:14:39;0.50;99.90
52643;DHT22;38531;53.296;6.614;2022-11-20T03:17:05;0.50;99.90
52643;DHT22;38531;53.296;6.614;2022-11-20T03:19:31;0.50;99.90
52643;DHT22;38531;53.296;6.614;2022-11-20T03:21:57;0.50;99.90
52643;DHT22;38531;53.296;6.614;2022-11-20T03:24:22;0.40;99.90
52643;DHT22;38531;53.296;6.614;2022-11-20T03:26:48;0.40;99.90
52643;DHT22;38531;53.296;6.614;2022-11-20T03:29:14;0.40;99.90
52643;DHT22;38531;53.296;6.614;2022-11-20T03:31:40;0.40;99.90
52643;DHT22;38531;53.296;6.614;2022-11-20T03:34:07;0.50;99.90
52643;DHT22;38531;53.296;6.614;2022-11-20T03:36:33;0.40;99.90
52643;DHT22;38531;53.296;6.614;2022-11-20T03:38:59;0.50;99.90
52643;DHT22;38531;53.296;6.614;2022-11-20T03:41:29;0.50;99.90
52643;DHT22;38531;53.296;6.614;2022-11-20T03:44:00;0.40;99.90
52643;DHT22;38531;53.296;6.614;2022-11-20T03:46:27;0.50;99.90
52643;DHT22;38531;53.296;6.614;2022-11-20T03:48:54;0.50;99.90
52643;DHT22;38531;53.296;6.614;2022-11-20T03:51:22;0.50;99.90
52643;DHT22;38531;53.296;6.614;2022-11-20T03:53:49;1.00;99.90
52643;DHT22;38531;53.296;6.614;2022-11-20T03:56:17;0.70;99.90
52643;DHT22;38531;53.296;6.614;2022-11-20T03:58:43;1.70;99.90
52643;DHT22;38531;53.296;6.614;2022-11-20T04:01:18;0.50;99.90
52643;DHT22;38531;53.296;6.614;2022-11-20T04:03:45;0.50;99.90
52643;DHT22;38531;53.296;6.614;2022-11-20T04:06:14;0.50;99.90
52643;DHT22;38531;53.296;6.614;2022-11-20T04:08:41;0.50;99.90
52643;DHT22;38531;53.296;6.614;2022-11-20T04:11:14;0.50;99.90
52643;DHT22;38531;53.296;6.614;2022-11-20T04:13:41;0.50;99.90
52643;DHT22;38531;53.296;6.614;2022-11-20T04:16:08;0.50;99.90
52643;DHT22;38531;53.296;6.614;2022-11-20T04:18:34;0.50;99.90
52643;DHT22;38531;53.296;6.614;2022-11-20T04:21:00;0.60;99.90
52643;DHT22;38531;53.296;6.614;2022-11-20T04:23:29;0.60;99.90
52643;DHT22;38531;53.296;6.614;2022-11-20T04:25:54;0.60;99.90
52643;DHT22;38531;53.296;6.614;2022-11-20T04:28:20;1.70;99.90
52643;DHT22;38531;53.296;6.614;2022-11-20T04:30:46;0.60;99.90
52643;DHT22;38531;53.296;6.614;2022-11-20T04:33:12;0.60;99.90
52643;DHT22;38531;53.296;6.614;2022-11-20T04:35:38;0.60;99.90
52643;DHT22;38531;53.296;6.614;2022-11-20T04:38:03;0.60;99.90
52643;DHT22;38531;53.296;6.614;2022-11-20T04:40:30;0.60;99.90
52643;DHT22;38531;53.296;6.614;2022-11-20T04:42:56;0.60;99.90
52643;DHT22;38531;53.296;6.614;2022-11-20T04:45:24;0.60;99.90
52643;DHT22;38531;53.296;6.614;2022-11-20T04:47:50;0.60;99.90
52643;DHT22;38531;53.296;6.614;2022-11-20T04:50:15;0.60;99.90
52643;DHT22;38531;53.296;6.614;2022-11-20T04:52:41;0.60;99.90
52643;DHT22;38531;53.296;6.614;2022-11-20T04:55:07;0.60;99.90
52643;DHT22;38531;53.296;6.614;2022-11-20T04:57:33;0.60;99.90
52643;DHT22;38531;53.296;6.614;2022-11-20T04:59:58;0.60;99.90
52643;DHT22;38531;53.296;6.614;2022-11-20T05:02:24;0.60;99.90
52643;DHT22;38531;53.296;6.614;2022-11-20T05:04:50;1.40;99.90
52643;DHT22;38531;53.296;6.614;2022-11-20T05:07:15;0.60;99.90
52643;DHT22;38531;53.296;6.614;2022-11-20T05:09:41;0.60;99.90
52643;DHT22;38531;53.296;6.614;2022-11-20T05:12:08;0.90;99.90
52643;DHT22;38531;53.296;6.614;2022-11-20T05:14:34;0.50;99.90
52643;DHT22;38531;53.296;6.614;2022-11-20T05:16:59;0.60;99.90
52643;DHT22;38531;53.296;6.614;2022-11-20T05:19:25;0.60;99.90
52643;DHT22;38531;53.296;6.614;2022-11-20T05:21:50;0.60;99.90
52643;DHT22;38531;53.296;6.614;2022-11-20T05:24:16;0.60;99.90
52643;DHT22;38531;53.296;6.614;2022-11-20T05:26:42;0.60;99.90
52643;DHT22;38531;53.296;6.614;2022-11-20T05:29:10;0.50;99.90
52643;DHT22;38531;53.296;6.614;2022-11-20T05:31:36;0.60;99.90
52643;DHT22;38531;53.296;6.614;2022-11-20T05:34:02;1.40;99.90
52643;DHT22;38531;53.296;6.614;2022-11-20T05:36:28;0.60;99.90
52643;DHT22;38531;53.296;6.614;2022-11-20T05:38:55;0.60;99.90
52643;DHT22;38531;53.296;6.614;2022-11-20T05:41:20;0.60;99.90
52643;DHT22;38531;53.296;6.614;2022-11-20T05:43:47;0.60;99.90
52643;DHT22;38531;53.296;6.614;2022-11-20T05:46:15;0.60;99.90
52643;DHT22;38531;53.296;6.614;2022-11-20T05:48:44;0.60;99.90
52643;DHT22;38531;53.296;6.614;2022-11-20T05:51:13;0.60;99.90
52643;DHT22;38531;53.296;6.614;2022-11-20T05:53:39;0.60;99.90
52643;DHT22;38531;53.296;6.614;2022-11-20T05:56:19;0.60;99.90
52643;DHT22;38531;53.296;6.614;2022-11-20T05:58:45;0.60;99.90
52643;DHT22;38531;53.296;6.614;2022-11-20T06:01:14;0.60;99.90
52643;DHT22;38531;53.296;6.614;2022-11-20T06:03:41;0.60;99.90
52643;DHT22;38531;53.296;6.614;2022-11-20T06:06:09;0.70;99.90
52643;DHT22;38531;53.296;6.614;2022-11-20T06:08:34;0.70;99.90
52643;DHT22;38531;53.296;6.614;2022-11-20T06:11:11;0.70;99.90
52643;DHT22;38531;53.296;6.614;2022-11-20T06:13:37;0.60;99.90
52643;DHT22;38531;53.296;6.614;2022-11-20T06:16:03;1.80;99.90
52643;DHT22;38531;53.296;6.614;2022-11-20T06:18:29;0.70;99.90
52643;DHT22;38531;53.296;6.614;2022-11-20T06:21:03;0.70;99.90
52643;DHT22;38531;53.296;6.614;2022-11-20T06:23:30;0.70;99.90
52643;DHT22;38531;53.296;6.614;2022-11-20T06:25:57;0.70;99.90
52643;DHT22;38531;53.296;6.614;2022-11-20T06:28:23;0.70;99.90
52643;DHT22;38531;53.296;6.614;2022-11-20T06:30:48;0.70;99.90
52643;DHT22;38531;53.296;6.614;2022-11-20T06:33:14;0.70;99.90
52643;DHT22;38531;53.296;6.614;2022-11-20T06:35:39;0.70;99.90
52643;DHT22;38531;53.296;6.614;2022-11-20T06:38:05;0.70;99.90
52643;DHT22;38531;53.296;6.614;2022-11-20T06:40:31;0.70;99.90
52643;DHT22;38531;53.296;6.614;2022-11-20T06:42:56;0.70;99.90
52643;DHT22;38531;53.296;6.614;2022-11-20T06:45:22;0.70;99.90
52643;DHT22;38531;53.296;6.614;2022-11-20T06:47:47;0.70;99.90
52643;DHT22;38531;53.296;6.614;2022-11-20T06:50:13;0.70;99.90
52643;DHT22;38531;53.296;6.614;2022-11-20T06:52:39;0.70;99.90
52643;DHT22;38531;53.296;6.614;2022-11-20T06:55:04;0.70;99.90
52643;DHT22;38531;53.296;6.614;2022-11-20T06:57:30;0.70;99.90
52643;DHT22;38531;53.296;6.614;2022-11-20T06:59:56;0.80;99.90
52643;DHT22;38531;53.296;6.614;2022-11-20T07:02:21;0.80;99.90
52643;DHT22;38531;53.296;6.614;2022-11-20T07:04:47;0.80;99.90
52643;DHT22;38531;53.296;6.614;2022-11-20T07:07:13;0.80;99.90
52643;DHT22;38531;53.296;6.614;2022-11-20T07:09:38;0.70;99.90
52643;DHT22;38531;53.296;6.614;2022-11-20T07:12:04;0.80;99.90
52643;DHT22;38531;53.296;6.614;2022-11-20T07:14:30;0.80;99.90
52643;DHT22;38531;53.296;6.614;2022-11-20T07:16:56;0.80;99.90
52643;DHT22;38531;53.296;6.614;2022-11-20T07:19:21;0.80;99.90
52643;DHT22;38531;53.296;6.614;2022-11-20T07:21:47;0.90;99.90
52643;DHT22;38531;53.296;6.614;2022-11-20T07:24:13;0.80;99.90
52643;DHT22;38531;53.296;6.614;2022-11-20T07:26:38;1.10;99.90
52643;DHT22;38531;53.296;6.614;2022-11-20T07:29:04;0.90;99.90
52643;DHT22;38531;53.296;6.614;2022-11-20T07:31:29;0.90;99.90
52643;DHT22;38531;53.296;6.614;2022-11-20T07:33:55;0.70;99.90
52643;DHT22;38531;53.296;6.614;2022-11-20T07:36:21;0.90;99.90
52643;DHT22;38531;53.296;6.614;2022-11-20T07:38:46;0.90;99.90
52643;DHT22;38531;53.296;6.614;2022-11-20T07:41:12;0.90;99.90
52643;DHT22;38531;53.296;6.614;2022-11-20T07:43:37;1.80;99.90
52643;DHT22;38531;53.296;6.614;2022-11-20T07:46:03;1.20;99.90
52643;DHT22;38531;53.296;6.614;2022-11-20T07:48:29;1.00;99.90
52643;DHT22;38531;53.296;6.614;2022-11-20T07:50:58;1.70;99.90
52643;DHT22;38531;53.296;6.614;2022-11-20T07:53:24;1.00;99.90
52643;DHT22;38531;53.296;6.614;2022-11-20T07:55:50;1.80;99.90
52643;DHT22;38531;53.296;6.614;2022-11-20T07:58:18;1.00;99.90
52643;DHT22;38531;53.296;6.614;2022-11-20T08:00:44;2.40;99.90
52643;DHT22;38531;53.296;6.614;2022-11-20T08:03:10;1.10;99.90
52643;DHT22;38531;53.296;6.614;2022-11-20T08:05:35;1.10;99.90
52643;DHT22;38531;53.296;6.614;2022-11-20T08:08:02;1.10;99.90
52643;DHT22;38531;53.296;6.614;2022-11-20T08:10:28;1.10;99.90
52643;DHT22;38531;53.296;6.614;2022-11-20T08:12:54;2.00;99.90
52643;DHT22;38531;53.296;6.614;2022-11-20T08:15:39;1.10;99.90
52643;DHT22;38531;53.296;6.614;2022-11-20T08:18:07;1.70;99.90
52643;DHT22;38531;53.296;6.614;2022-11-20T08:20:33;2.50;99.90
52643;DHT22;38531;53.296;6.614;2022-11-20T08:23:04;1.20;99.90
52643;DHT22;38531;53.296;6.614;2022-11-20T08:25:31;1.00;99.90
52643;DHT22;38531;53.296;6.614;2022-11-20T08:27:58;1.30;99.90
52643;DHT22;38531;53.296;6.614;2022-11-20T08:30:25;1.30;99.90
52643;DHT22;38531;53.296;6.614;2022-11-20T08:32:50;1.30;99.90
52643;DHT22;38531;53.296;6.614;2022-11-20T08:35:16;1.30;99.90
52643;DHT22;38531;53.296;6.614;2022-11-20T08:37:45;1.30;99.90
52643;DHT22;38531;53.296;6.614;2022-11-20T08:40:11;1.40;99.90
52643;DHT22;38531;53.296;6.614;2022-11-20T08:42:37;1.40;99.90
52643;DHT22;38531;53.296;6.614;2022-11-20T08:45:10;1.40;99.90
52643;DHT22;38531;53.296;6.614;2022-11-20T08:47:36;1.80;99.90
52643;DHT22;38531;53.296;6.614;2022-11-20T08:50:02;1.60;99.90
52643;DHT22;38531;53.296;6.614;2022-11-20T08:52:28;1.50;99.90
52643;DHT22;38531;53.296;6.614;2022-11-20T08:54:53;2.20;99.90
52643;DHT22;38531;53.296;6.614;2022-11-20T08:57:19;0.90;99.90
52643;DHT22;38531;53.296;6.614;2022-11-20T08:59:45;3.50;99.90
52643;DHT22;38531;53.296;6.614;2022-11-20T09:02:11;1.70;99.90
52643;DHT22;38531;53.296;6.614;2022-11-20T09:04:37;1.00;99.90
52643;DHT22;38531;53.296;6.614;2022-11-20T09:07:03;2.70;99.90
52643;DHT22;38531;53.296;6.614;2022-11-20T09:09:28;1.20;99.90
52643;DHT22;38531;53.296;6.614;2022-11-20T09:11:54;1.80;99.90
52643;DHT22;38531;53.296;6.614;2022-11-20T09:14:20;2.30;99.90
52643;DHT22;38531;53.296;6.614;2022-11-20T09:16:46;2.10;99.90
52643;DHT22;38531;53.296;6.614;2022-11-20T09:19:12;1.70;99.90
52643;DHT22;38531;53.296;6.614;2022-11-20T09:21:38;1.70;99.90
52643;DHT22;38531;53.296;6.614;2022-11-20T09:24:04;2.00;99.90
52643;DHT22;38531;53.296;6.614;2022-11-20T09:26:30;1.80;99.90
52643;DHT22;38531;53.296;6.614;2022-11-20T09:28:56;2.50;99.90
52643;DHT22;38531;53.296;6.614;2022-11-20T09:31:23;3.00;99.90
52643;DHT22;38531;53.296;6.614;2022-11-20T09:33:49;2.80;99.90
52643;DHT22;38531;53.296;6.614;2022-11-20T09:36:15;2.70;99.90
52643;DHT22;38531;53.296;6.614;2022-11-20T09:38:42;2.70;99.90
52643;DHT22;38531;53.296;6.614;2022-11-20T09:44:25;2.00;99.90
52643;DHT22;38531;53.296;6.614;2022-11-20T09:46:54;2.10;99.90
52643;DHT22;38531;53.296;6.614;2022-11-20T09:49:35;2.10;99.90
52643;DHT22;38531;53.296;6.614;2022-11-20T09:52:34;1.90;99.90
52643;DHT22;38531;53.296;6.614;2022-11-20T09:55:03;2.20;99.90
52643;DHT22;38531;53.296;6.614;2022-11-20T09:57:39;2.20;99.90
52643;DHT22;38531;53.296;6.614;2022-11-20T10:00:10;2.20;99.90
52643;DHT22;38531;53.296;6.614;2022-11-20T10:03:16;2.30;99.90
52643;DHT22;38531;53.296;6.614;2022-11-20T10:05:54;2.40;99.90
52643;DHT22;38531;53.296;6.614;2022-11-20T10:08:24;3.00;99.90
52643;DHT22;38531;53.296;6.614;2022-11-20T10:16:36;2.60;99.90
52643;DHT22;38531;53.296;6.614;2022-11-20T10:29:47;2.70;99.90
52643;DHT22;38531;53.296;6.614;2022-11-20T10:32:20;2.80;99.90
52643;DHT22;38531;53.296;6.614;2022-11-20T10:37:29;2.90;99.90
52643;DHT22;38531;53.296;6.614;2022-11-20T10:40:22;2.60;99.90
52643;DHT22;38531;53.296;6.614;2022-11-20T10:43:33;2.90;99.90
52643;DHT22;38531;53.296;6.614;2022-11-20T10:46:03;2.90;99.90
52643;DHT22;38531;53.296;6.614;2022-11-20T10:48:31;3.20;99.90
52643;DHT22;38531;53.296;6.614;2022-11-20T10:51:31;3.00;99.90
52643;DHT22;38531;53.296;6.614;2022-11-20T10:54:31;3.10;99.90
52643;DHT22;38531;53.296;6.614;2022-11-20T10:57:17;3.10;99.90
52643;DHT22;38531;53.296;6.614;2022-11-20T10:59:58;4.10;99.90
52643;DHT22;38531;53.296;6.614;2022-11-20T11:02:34;3.70;99.90
52643;DHT22;38531;53.296;6.614;2022-11-20T11:07:47;3.40;99.90
52643;DHT22;38531;53.296;6.614;2022-11-20T11:10:26;4.10;99.90
52643;DHT22;38531;53.296;6.614;2022-11-20T11:12:53;3.60;99.90
52643;DHT22;38531;53.296;6.614;2022-11-20T11:15:36;2.50;99.90
52643;DHT22;38531;53.296;6.614;2022-11-20T11:18:02;2.60;99.90
52643;DHT22;38531;53.296;6.614;2022-11-20T11:20:28;3.60;99.90
52643;DHT22;38531;53.296;6.614;2022-11-20T11:22:56;4.00;99.90
52643;DHT22;38531;53.296;6.614;2022-11-20T11:25:31;3.50;99.90
52643;DHT22;38531;53.296;6.614;2022-11-20T11:28:25;4.00;99.90
52643;DHT22;38531;53.296;6.614;2022-11-20T11:30:55;4.30;99.90
52643;DHT22;38531;53.296;6.614;2022-11-20T11:33:24;3.50;99.90
52643;DHT22;38531;53.296;6.614;2022-11-20T11:35:56;2.90;99.90
52643;DHT22;38531;53.296;6.614;2022-11-20T11:38:41;3.30;99.90
52643;DHT22;38531;53.296;6.614;2022-11-20T11:41:22;3.30;99.90
52643;DHT22;38531;53.296;6.614;2022-11-20T11:43:54;3.20;99.90
52643;DHT22;38531;53.296;6.614;2022-11-20T11:46:44;3.90;99.90
52643;DHT22;38531;53.296;6.614;2022-11-20T11:49:19;3.20;99.90
52643;DHT22;38531;53.296;6.614;2022-11-20T11:54:49;3.30;99.90
52643;DHT22;38531;53.296;6.614;2022-11-20T12:00:02;3.20;99.90
52643;DHT22;38531;53.296;6.614;2022-11-20T12:05:27;3.40;99.90
52643;DHT22;38531;53.296;6.614;2022-11-20T12:10:57;4.20;99.90
52643;DHT22;38531;53.296;6.614;2022-11-20T12:13:48;4.10;99.90
52643;DHT22;38531;53.296;6.614;2022-11-20T12:16:18;3.40;99.90
52643;DHT22;38531;53.296;6.614;2022-11-20T12:18:48;3.10;99.90
52643;DHT22;38531;53.296;6.614;2022-11-20T12:41:12;3.70;99.90
52643;DHT22;38531;53.296;6.614;2022-11-20T12:59:56;4.00;99.90
52643;DHT22;38531;53.296;6.614;2022-11-20T13:05:27;4.00;99.90
52643;DHT22;38531;53.296;6.614;2022-11-20T13:07:59;4.00;99.90
52643;DHT22;38531;53.296;6.614;2022-11-20T13:10:43;4.80;99.90
52643;DHT22;38531;53.296;6.614;2022-11-20T13:16:16;4.00;99.90
52643;DHT22;38531;53.296;6.614;2022-11-20T13:18:43;4.00;99.90
52643;DHT22;38531;53.296;6.614;2022-11-20T13:21:36;2.80;99.90
52643;DHT22;38531;53.296;6.614;2022-11-20T13:26:32;3.90;99.90
52643;DHT22;38531;53.296;6.614;2022-11-20T13:29:11;4.20;99.90
52643;DHT22;38531;53.296;6.614;2022-11-20T13:31:42;3.70;99.90
52643;DHT22;38531;53.296;6.614;2022-11-20T13:34:25;4.90;99.90
52643;DHT22;38531;53.296;6.614;2022-11-20T13:36:54;4.00;99.90
52643;DHT22;38531;53.296;6.614;2022-11-20T13:39:29;4.60;99.90
52643;DHT22;38531;53.296;6.614;2022-11-20T13:41:58;4.00;99.90
52643;DHT22;38531;53.296;6.614;2022-11-20T13:44:38;4.40;99.90
52643;DHT22;38531;53.296;6.614;2022-11-20T13:47:21;4.90;99.90
52643;DHT22;38531;53.296;6.614;2022-11-20T13:49:48;4.60;99.90
52643;DHT22;38531;53.296;6.614;2022-11-20T14:00:28;3.80;99.90
52643;DHT22;38531;53.296;6.614;2022-11-20T14:05:36;3.50;99.90
52643;DHT22;38531;53.296;6.614;2022-11-20T14:08:05;3.70;99.90
52643;DHT22;38531;53.296;6.614;2022-11-20T14:10:31;3.60;99.90
52643;DHT22;38531;53.296;6.614;2022-11-20T14:12:57;4.40;99.90
52643;DHT22;38531;53.296;6.614;2022-11-20T14:17:54;3.50;99.90
52643;DHT22;38531;53.296;6.614;2022-11-20T14:20:22;3.40;99.90
52643;DHT22;38531;53.296;6.614;2022-11-20T14:22:51;3.40;99.90
52643;DHT22;38531;53.296;6.614;2022-11-20T14:28:10;2.80;99.90
52643;DHT22;38531;53.296;6.614;2022-11-20T14:30:42;3.70;99.90
52643;DHT22;38531;53.296;6.614;2022-11-20T14:33:12;3.30;99.90
52643;DHT22;38531;53.296;6.614;2022-11-20T14:35:50;4.40;99.90
52643;DHT22;38531;53.296;6.614;2022-11-20T14:38:20;3.80;99.90
52643;DHT22;38531;53.296;6.614;2022-11-20T14:40:47;2.60;99.90
52643;DHT22;38531;53.296;6.614;2022-11-20T14:43:26;3.20;99.90
52643;DHT22;38531;53.296;6.614;2022-11-20T14:46:04;3.60;99.90
52643;DHT22;38531;53.296;6.614;2022-11-20T14:48:45;3.20;99.90
52643;DHT22;38531;53.296;6.614;2022-11-20T14:51:38;3.60;99.90
52643;DHT22;38531;53.296;6.614;2022-11-20T14:54:15;2.30;99.90
52643;DHT22;38531;53.296;6.614;2022-11-20T14:56:42;3.60;99.90
52643;DHT22;38531;53.296;6.614;2022-11-20T14:59:32;3.60;99.90
52643;DHT22;38531;53.296;6.614;2022-11-20T15:02:10;2.90;99.90
52643;DHT22;38531;53.296;6.614;2022-11-20T15:04:50;3.50;99.90
52643;DHT22;38531;53.296;6.614;2022-11-20T15:07:32;3.10;99.90
52643;DHT22;38531;53.296;6.614;2022-11-20T15:12:46;3.70;99.90
52643;DHT22;38531;53.296;6.614;2022-11-20T15:15:17;2.70;99.90
52643;DHT22;38531;53.296;6.614;2022-11-20T15:17:44;2.70;99.90
52643;DHT22;38531;53.296;6.614;2022-11-20T15:20:14;3.30;99.90
52643;DHT22;38531;53.296;6.614;2022-11-20T15:22:40;2.60;99.90
52643;DHT22;38531;53.296;6.614;2022-11-20T15:25:15;2.50;99.90
52643;DHT22;38531;53.296;6.614;2022-11-20T15:27:45;3.00;99.90
52643;DHT22;38531;53.296;6.614;2022-11-20T15:30:16;2.80;99.90
52643;DHT22;38531;53.296;6.614;2022-11-20T15:32:43;2.50;99.90
52643;DHT22;38531;53.296;6.614;2022-11-20T15:35:13;3.50;99.90
52643;DHT22;38531;53.296;6.614;2022-11-20T15:37:39;2.50;99.90
52643;DHT22;38531;53.296;6.614;2022-11-20T15:40:07;3.30;99.90
52643;DHT22;38531;53.296;6.614;2022-11-20T15:42:33;2.30;99.90
52643;DHT22;38531;53.296;6.614;2022-11-20T15:44:59;2.80;99.90
52643;DHT22;38531;53.296;6.614;2022-11-20T15:47:28;1.90;99.90
52643;DHT22;38531;53.296;6.614;2022-11-20T15:49:57;2.10;99.90
52643;DHT22;38531;53.296;6.614;2022-11-20T15:52:34;3.10;99.90
52643;DHT22;38531;53.296;6.614;2022-11-20T15:55:10;1.50;99.90
52643;DHT22;38531;53.296;6.614;2022-11-20T15:57:56;2.00;99.90
52643;DHT22;38531;53.296;6.614;2022-11-20T16:00:28;2.00;99.90
52643;DHT22;38531;53.296;6.614;2022-11-20T16:03:05;1.70;99.90
52643;DHT22;38531;53.296;6.614;2022-11-20T16:05:31;2.30;99.90
52643;DHT22;38531;53.296;6.614;2022-11-20T16:07:57;1.90;99.90
52643;DHT22;38531;53.296;6.614;2022-11-20T16:10:28;1.90;99.90
52643;DHT22;38531;53.296;6.614;2022-11-20T16:13:13;2.40;99.90
52643;DHT22;38531;53.296;6.614;2022-11-20T16:15:59;3.10;99.90
52643;DHT22;38531;53.296;6.614;2022-11-20T16:18:26;1.20;99.90
52643;DHT22;38531;53.296;6.614;2022-11-20T16:20:54;2.60;99.90
52643;DHT22;38531;53.296;6.614;2022-11-20T16:23:21;1.80;99.90
52643;DHT22;38531;53.296;6.614;2022-11-20T16:25:55;2.40;99.90
52643;DHT22;38531;53.296;6.614;2022-11-20T16:28:21;1.90;99.90
52643;DHT22;38531;53.296;6.614;2022-11-20T16:41:39;1.70;99.90
52643;DHT22;38531;53.296;6.614;2022-11-20T16:44:14;1.70;99.90
52643;DHT22;38531;53.296;6.614;2022-11-20T16:46:49;1.70;99.90
52643;DHT22;38531;53.296;6.614;2022-11-20T16:56:34;1.60;99.90
52643;DHT22;38531;53.296;6.614;2022-11-20T16:59:11;1.50;99.90
52643;DHT22;38531;53.296;6.614;2022-11-20T17:01:40;1.60;99.90
52643;DHT22;38531;53.296;6.614;2022-11-20T17:07:11;1.50;99.90
52643;DHT22;38531;53.296;6.614;2022-11-20T17:09:37;3.10;99.90
52643;DHT22;38531;53.296;6.614;2022-11-20T17:12:07;1.90;99.90
52643;DHT22;38531;53.296;6.614;2022-11-20T17:14:40;1.80;99.90
52643;DHT22;38531;53.296;6.614;2022-11-20T17:17:05;2.00;99.90
52643;DHT22;38531;53.296;6.614;2022-11-20T17:19:31;1.40;99.90
52643;DHT22;38531;53.296;6.614;2022-11-20T17:22:01;1.10;99.90
52643;DHT22;38531;53.296;6.614;2022-11-20T17:24:38;2.90;99.90
52643;DHT22;38531;53.296;6.614;2022-11-20T17:27:07;2.70;99.90
52643;DHT22;38531;53.296;6.614;2022-11-20T17:29:39;1.40;99.90
52643;DHT22;38531;53.296;6.614;2022-11-20T17:32:04;2.00;99.90
52643;DHT22;38531;53.296;6.614;2022-11-20T17:35:05;2.30;99.90
52643;DHT22;38531;53.296;6.614;2022-11-20T17:40:15;1.50;99.90
52643;DHT22;38531;53.296;6.614;2022-11-20T17:43:00;1.50;99.90
52643;DHT22;38531;53.296;6.614;2022-11-20T17:45:34;1.50;99.90
52643;DHT22;38531;53.296;6.614;2022-11-20T17:48:00;2.60;99.90
52643;DHT22;38531;53.296;6.614;2022-11-20T17:50:39;1.00;99.90
52643;DHT22;38531;53.296;6.614;2022-11-20T17:53:10;1.30;99.90
52643;DHT22;38531;53.296;6.614;2022-11-20T17:59:06;1.80;99.90
52643;DHT22;38531;53.296;6.614;2022-11-20T18:01:35;1.50;99.90
52643;DHT22;38531;53.296;6.614;2022-11-20T18:04:04;0.60;99.90
52643;DHT22;38531;53.296;6.614;2022-11-20T18:09:55;1.40;99.90
52643;DHT22;38531;53.296;6.614;2022-11-20T18:12:21;1.30;99.90
52643;DHT22;38531;53.296;6.614;2022-11-20T18:14:50;1.70;99.90